Omskiy-107 — UBWE3 — position and weather

sailwx.info

Track history (hours):
 
Tides and Currents Weather Stations Pressure Air Temp Water Temp Dewpoint Dewpoint Depression Visibility Wind Speed Wind Dir Waves Ship Positions

Omskiy-107

Last reported at 2016-Jun-23 22:26 UTC. Time now 2016-Jun-26 08:23 UTC.
Position N 45°23' E 037°18'.

Length 108 m; draft 2.5 m.

Type: Cargo ship. MMSI: 273343220.

Date/timePositionNaut miles runAvg speedWind from/ knotsBaromVisibWave heightAir tempDewpointWater temp
2016-Jun-23 22:26N 45°23' E 037°18'23 4.8
2016-Jun-23 17:33N 45°27' E 036°45'8 7.5
2016-Jun-23 16:33N 45°21' E 036°38'7 6.9
2016-Jun-23 15:33N 45°18' E 036°30'8 7.3
2016-Jun-23 14:29N 45°10' E 036°29'7 7.7
2016-Jun-23 13:33N 45°03' E 036°30'8 8.1
2016-Jun-23 12:32N 44°55' E 036°31'60 7.3
2016-Jun-23 04:12N 44°41' E 035°08'5 8.4
2016-Jun-23 03:33N 44°39' E 035°02'8 8.4
2016-Jun-23 02:33N 44°35' E 034°51'9 8.6
2016-Jun-23 01:33N 44°31' E 034°41'8 8.5
2016-Jun-23 00:33N 44°27' E 034°30'8 8.1
2016-Jun-22 23:33N 44°23' E 034°20'  
2016-Jun-18 07:04N 44°05' E 032°27'127 7.6
2016-Jun-17 14:23N 44°44' E 035°17'7 8.1
2016-Jun-17 13:34N 44°45' E 035°26'8 7.5
2016-Jun-17 12:34N 44°45' E 035°37'7 7.4
2016-Jun-17 11:34N 44°46' E 035°47'30 6.1
2016-Jun-17 06:31N 44°57' E 036°27'7 7.0
2016-Jun-17 05:32N 45°04' E 036°30'8 8.2
2016-Jun-17 04:34N 45°12' E 036°28'7 6.6
2016-Jun-17 03:34N 45°18' E 036°30'8 7.6
2016-Jun-17 02:34N 45°22' E 036°39'5 5.3
2016-Jun-17 01:34N 45°27' E 036°41'6 5.9
2016-Jun-17 00:33N 45°32' E 036°44'8 7.4
2016-Jun-16 23:31N 45°39' E 036°48'  
Track history (hours):
 
Tides and Currents Weather Stations Pressure Air Temp Water Temp Dewpoint Dewpoint Depression Visibility Wind Speed Wind Dir Waves Ship Positions

Omskiy-107

Last reported at 2016-Jun-23 22:26 UTC. Time now 2016-Jun-26 08:23 UTC.
Position N 45°23' E 037°18'.

Length 108 m; draft 2.5 m.

Type: Cargo ship. MMSI: 273343220.

Date/timePositionNaut miles runAvg speedWind from/ knotsBaromVisibWave heightAir tempDewpointWater temp
2016-Jun-23 22:26N 45°23' E 037°18'23 4.8
2016-Jun-23 17:33N 45°27' E 036°45'8 7.5
2016-Jun-23 16:33N 45°21' E 036°38'7 6.9
2016-Jun-23 15:33N 45°18' E 036°30'8 7.3
2016-Jun-23 14:29N 45°10' E 036°29'7 7.7
2016-Jun-23 13:33N 45°03' E 036°30'8 8.1
2016-Jun-23 12:32N 44°55' E 036°31'60 7.3
2016-Jun-23 04:12N 44°41' E 035°08'5 8.4
2016-Jun-23 03:33N 44°39' E 035°02'8 8.4
2016-Jun-23 02:33N 44°35' E 034°51'9 8.6
2016-Jun-23 01:33N 44°31' E 034°41'8 8.5
2016-Jun-23 00:33N 44°27' E 034°30'8 8.1
2016-Jun-22 23:33N 44°23' E 034°20'  
2016-Jun-18 07:04N 44°05' E 032°27'127 7.6
2016-Jun-17 14:23N 44°44' E 035°17'7 8.1
2016-Jun-17 13:34N 44°45' E 035°26'8 7.5
2016-Jun-17 12:34N 44°45' E 035°37'7 7.4
2016-Jun-17 11:34N 44°46' E 035°47'30 6.1
2016-Jun-17 06:31N 44°57' E 036°27'7 7.0
2016-Jun-17 05:32N 45°04' E 036°30'8 8.2
2016-Jun-17 04:34N 45°12' E 036°28'7 6.6
2016-Jun-17 03:34N 45°18' E 036°30'8 7.6
2016-Jun-17 02:34N 45°22' E 036°39'5 5.3
2016-Jun-17 01:34N 45°27' E 036°41'6 5.9
2016-Jun-17 00:33N 45°32' E 036°44'8 7.4
2016-Jun-16 23:31N 45°39' E 036°48'  

Dump ship's entire track history